sensor_id;sensor_type;location;lat;lon;timestamp;temperature;humidity
9497;DHT22;4786;51.270;4.456;2024-03-02T00:00:07;7.70;99.90
9497;DHT22;4786;51.270;4.456;2024-03-02T00:02:44;7.70;99.90
9497;DHT22;4786;51.270;4.456;2024-03-02T00:05:12;7.70;99.90
9497;DHT22;4786;51.270;4.456;2024-03-02T00:07:43;7.70;99.90
9497;DHT22;4786;51.270;4.456;2024-03-02T00:10:12;7.70;99.90
9497;DHT22;4786;51.270;4.456;2024-03-02T00:12:40;7.70;99.90
9497;DHT22;4786;51.270;4.456;2024-03-02T00:17:53;7.70;99.90
9497;DHT22;4786;51.270;4.456;2024-03-02T00:20:22;7.70;99.90
9497;DHT22;4786;51.270;4.456;2024-03-02T00:22:56;7.70;99.90
9497;DHT22;4786;51.270;4.456;2024-03-02T00:25:24;7.70;99.90
9497;DHT22;4786;51.270;4.456;2024-03-02T00:27:50;7.70;99.90
9497;DHT22;4786;51.270;4.456;2024-03-02T00:33:09;7.80;99.90
9497;DHT22;4786;51.270;4.456;2024-03-02T00:35:35;7.80;99.90
9497;DHT22;4786;51.270;4.456;2024-03-02T00:38:05;7.70;99.90
9497;DHT22;4786;51.270;4.456;2024-03-02T00:40:32;7.60;99.90
9497;DHT22;4786;51.270;4.456;2024-03-02T00:42:58;7.70;99.90
9497;DHT22;4786;51.270;4.456;2024-03-02T00:45:25;7.70;99.90
9497;DHT22;4786;51.270;4.456;2024-03-02T00:47:51;7.80;99.90
9497;DHT22;4786;51.270;4.456;2024-03-02T00:50:18;7.70;99.90
9497;DHT22;4786;51.270;4.456;2024-03-02T00:52:44;7.60;99.90
9497;DHT22;4786;51.270;4.456;2024-03-02T00:55:10;7.70;99.90
9497;DHT22;4786;51.270;4.456;2024-03-02T00:57:36;7.70;99.90
9497;DHT22;4786;51.270;4.456;2024-03-02T01:00:02;7.70;99.90
9497;DHT22;4786;51.270;4.456;2024-03-02T01:02:29;7.80;99.90
9497;DHT22;4786;51.270;4.456;2024-03-02T01:04:55;7.80;99.90
9497;DHT22;4786;51.270;4.456;2024-03-02T01:07:20;7.70;99.90
9497;DHT22;4786;51.270;4.456;2024-03-02T01:09:47;7.80;99.90
9497;DHT22;4786;51.270;4.456;2024-03-02T01:12:13;7.70;99.90
9497;DHT22;4786;51.270;4.456;2024-03-02T01:14:39;7.70;99.90
9497;DHT22;4786;51.270;4.456;2024-03-02T01:17:05;7.70;99.90
9497;DHT22;4786;51.270;4.456;2024-03-02T01:19:31;7.70;99.90
9497;DHT22;4786;51.270;4.456;2024-03-02T01:21:57;7.80;99.90
9497;DHT22;4786;51.270;4.456;2024-03-02T01:24:23;7.80;99.90
9497;DHT22;4786;51.270;4.456;2024-03-02T01:26:49;7.80;99.90
9497;DHT22;4786;51.270;4.456;2024-03-02T01:29:14;7.80;99.90
9497;DHT22;4786;51.270;4.456;2024-03-02T01:31:40;7.80;99.90
9497;DHT22;4786;51.270;4.456;2024-03-02T01:34:08;7.80;99.90
9497;DHT22;4786;51.270;4.456;2024-03-02T01:36:34;7.80;99.90
9497;DHT22;4786;51.270;4.456;2024-03-02T01:39:00;7.80;99.90
9497;DHT22;4786;51.270;4.456;2024-03-02T01:41:27;7.70;99.90
9497;DHT22;4786;51.270;4.456;2024-03-02T01:43:52;7.80;99.90
9497;DHT22;4786;51.270;4.456;2024-03-02T01:46:18;7.70;99.90
9497;DHT22;4786;51.270;4.456;2024-03-02T01:48:44;7.70;99.90
9497;DHT22;4786;51.270;4.456;2024-03-02T01:51:10;7.80;99.90
9497;DHT22;4786;51.270;4.456;2024-03-02T01:53:36;7.80;99.90
9497;DHT22;4786;51.270;4.456;2024-03-02T01:56:02;7.80;99.90
9497;DHT22;4786;51.270;4.456;2024-03-02T01:58:29;7.80;99.90
9497;DHT22;4786;51.270;4.456;2024-03-02T02:00:55;7.80;99.90
9497;DHT22;4786;51.270;4.456;2024-03-02T02:03:21;7.70;99.90
9497;DHT22;4786;51.270;4.456;2024-03-02T02:05:46;7.70;99.90
9497;DHT22;4786;51.270;4.456;2024-03-02T02:08:13;7.70;99.90
9497;DHT22;4786;51.270;4.456;2024-03-02T02:10:39;7.70;99.90
9497;DHT22;4786;51.270;4.456;2024-03-02T02:13:05;7.70;99.90
9497;DHT22;4786;51.270;4.456;2024-03-02T02:15:31;7.70;99.90
9497;DHT22;4786;51.270;4.456;2024-03-02T02:17:58;7.60;99.90
9497;DHT22;4786;51.270;4.456;2024-03-02T02:20:25;7.60;99.90
9497;DHT22;4786;51.270;4.456;2024-03-02T02:22:55;7.60;99.90
9497;DHT22;4786;51.270;4.456;2024-03-02T02:25:22;7.50;99.90
9497;DHT22;4786;51.270;4.456;2024-03-02T02:27:47;7.50;99.90
9497;DHT22;4786;51.270;4.456;2024-03-02T02:30:13;7.50;99.90
9497;DHT22;4786;51.270;4.456;2024-03-02T02:32:39;7.60;99.90
9497;DHT22;4786;51.270;4.456;2024-03-02T02:35:05;7.60;99.90
9497;DHT22;4786;51.270;4.456;2024-03-02T02:37:31;7.50;99.90
9497;DHT22;4786;51.270;4.456;2024-03-02T02:39:58;7.60;99.90
9497;DHT22;4786;51.270;4.456;2024-03-02T02:42:24;7.60;99.90
9497;DHT22;4786;51.270;4.456;2024-03-02T02:44:50;7.60;99.90
9497;DHT22;4786;51.270;4.456;2024-03-02T02:47:15;7.60;99.90
9497;DHT22;4786;51.270;4.456;2024-03-02T02:49:41;7.50;99.90
9497;DHT22;4786;51.270;4.456;2024-03-02T02:52:07;7.40;99.90
9497;DHT22;4786;51.270;4.456;2024-03-02T02:54:33;7.40;99.90
9497;DHT22;4786;51.270;4.456;2024-03-02T02:56:59;7.40;99.90
9497;DHT22;4786;51.270;4.456;2024-03-02T02:59:25;7.50;99.90
9497;DHT22;4786;51.270;4.456;2024-03-02T03:01:51;7.40;99.90
9497;DHT22;4786;51.270;4.456;2024-03-02T03:04:18;7.40;99.90
9497;DHT22;4786;51.270;4.456;2024-03-02T03:06:44;7.40;99.90
9497;DHT22;4786;51.270;4.456;2024-03-02T03:09:10;7.30;99.90
9497;DHT22;4786;51.270;4.456;2024-03-02T03:11:36;7.40;99.90
9497;DHT22;4786;51.270;4.456;2024-03-02T03:14:02;7.40;99.90
9497;DHT22;4786;51.270;4.456;2024-03-02T03:16:30;7.40;99.90
9497;DHT22;4786;51.270;4.456;2024-03-02T03:18:56;7.40;99.90
9497;DHT22;4786;51.270;4.456;2024-03-02T03:21:22;7.50;99.90
9497;DHT22;4786;51.270;4.456;2024-03-02T03:23:48;7.50;99.90
9497;DHT22;4786;51.270;4.456;2024-03-02T03:26:13;7.50;99.90
9497;DHT22;4786;51.270;4.456;2024-03-02T03:28:39;7.50;99.90
9497;DHT22;4786;51.270;4.456;2024-03-02T03:31:05;7.50;99.90
9497;DHT22;4786;51.270;4.456;2024-03-02T03:33:31;7.50;99.90
9497;DHT22;4786;51.270;4.456;2024-03-02T03:35:57;7.50;99.90
9497;DHT22;4786;51.270;4.456;2024-03-02T03:38:23;7.50;99.90
9497;DHT22;4786;51.270;4.456;2024-03-02T03:40:49;7.50;99.90
9497;DHT22;4786;51.270;4.456;2024-03-02T03:43:15;7.50;99.90
9497;DHT22;4786;51.270;4.456;2024-03-02T03:45:40;7.50;99.90
9497;DHT22;4786;51.270;4.456;2024-03-02T03:48:07;7.50;99.90
9497;DHT22;4786;51.270;4.456;2024-03-02T03:50:33;7.50;99.90
9497;DHT22;4786;51.270;4.456;2024-03-02T03:52:58;7.50;99.90
9497;DHT22;4786;51.270;4.456;2024-03-02T03:55:25;7.50;99.90
9497;DHT22;4786;51.270;4.456;2024-03-02T03:57:51;7.50;99.90
9497;DHT22;4786;51.270;4.456;2024-03-02T04:00:17;7.50;99.90
9497;DHT22;4786;51.270;4.456;2024-03-02T04:02:43;7.50;99.90
9497;DHT22;4786;51.270;4.456;2024-03-02T04:05:09;7.50;99.90
9497;DHT22;4786;51.270;4.456;2024-03-02T04:07:39;7.40;99.90
9497;DHT22;4786;51.270;4.456;2024-03-02T04:10:07;7.40;99.90
9497;DHT22;4786;51.270;4.456;2024-03-02T04:12:34;7.40;99.90
9497;DHT22;4786;51.270;4.456;2024-03-02T04:15:01;7.30;99.90
9497;DHT22;4786;51.270;4.456;2024-03-02T04:17:27;7.40;99.90
9497;DHT22;4786;51.270;4.456;2024-03-02T04:19:53;7.30;99.90
9497;DHT22;4786;51.270;4.456;2024-03-02T04:22:19;7.30;99.90
9497;DHT22;4786;51.270;4.456;2024-03-02T04:24:45;7.30;99.90
9497;DHT22;4786;51.270;4.456;2024-03-02T04:27:11;7.20;99.90
9497;DHT22;4786;51.270;4.456;2024-03-02T04:29:36;7.20;99.90
9497;DHT22;4786;51.270;4.456;2024-03-02T04:32:02;7.20;99.90
9497;DHT22;4786;51.270;4.456;2024-03-02T04:34:28;7.20;99.90
9497;DHT22;4786;51.270;4.456;2024-03-02T04:36:53;7.30;99.90
9497;DHT22;4786;51.270;4.456;2024-03-02T04:39:19;7.20;99.90
9497;DHT22;4786;51.270;4.456;2024-03-02T04:41:46;7.30;99.90
9497;DHT22;4786;51.270;4.456;2024-03-02T04:44:12;7.30;99.90
9497;DHT22;4786;51.270;4.456;2024-03-02T04:46:38;7.20;99.90
9497;DHT22;4786;51.270;4.456;2024-03-02T04:49:04;7.30;99.90
9497;DHT22;4786;51.270;4.456;2024-03-02T04:51:30;7.20;99.90
9497;DHT22;4786;51.270;4.456;2024-03-02T04:53:56;7.20;99.90
9497;DHT22;4786;51.270;4.456;2024-03-02T04:56:22;7.30;99.90
9497;DHT22;4786;51.270;4.456;2024-03-02T04:58:48;7.20;99.90
9497;DHT22;4786;51.270;4.456;2024-03-02T05:01:13;7.20;99.90
9497;DHT22;4786;51.270;4.456;2024-03-02T05:03:39;7.20;99.90
9497;DHT22;4786;51.270;4.456;2024-03-02T05:06:06;7.20;99.90
9497;DHT22;4786;51.270;4.456;2024-03-02T05:08:32;7.20;99.90
9497;DHT22;4786;51.270;4.456;2024-03-02T05:10:59;7.20;99.90
9497;DHT22;4786;51.270;4.456;2024-03-02T05:13:44;7.20;99.90
9497;DHT22;4786;51.270;4.456;2024-03-02T05:16:11;7.10;99.90
9497;DHT22;4786;51.270;4.456;2024-03-02T05:18:37;7.10;99.90
9497;DHT22;4786;51.270;4.456;2024-03-02T05:21:04;7.00;99.90
9497;DHT22;4786;51.270;4.456;2024-03-02T05:23:29;7.10;99.90
9497;DHT22;4786;51.270;4.456;2024-03-02T05:25:56;7.20;99.90
9497;DHT22;4786;51.270;4.456;2024-03-02T05:28:22;7.00;99.90
9497;DHT22;4786;51.270;4.456;2024-03-02T05:30:48;7.00;99.90
9497;DHT22;4786;51.270;4.456;2024-03-02T05:33:15;6.90;99.90
9497;DHT22;4786;51.270;4.456;2024-03-02T05:35:41;6.80;99.90
9497;DHT22;4786;51.270;4.456;2024-03-02T05:38:07;6.80;99.90
9497;DHT22;4786;51.270;4.456;2024-03-02T05:40:33;6.80;99.90
9497;DHT22;4786;51.270;4.456;2024-03-02T05:42:59;6.70;99.90
9497;DHT22;4786;51.270;4.456;2024-03-02T05:45:25;6.70;99.90
9497;DHT22;4786;51.270;4.456;2024-03-02T05:47:51;6.70;99.90
9497;DHT22;4786;51.270;4.456;2024-03-02T05:50:17;6.70;99.90
9497;DHT22;4786;51.270;4.456;2024-03-02T05:52:45;6.70;99.90
9497;DHT22;4786;51.270;4.456;2024-03-02T05:55:12;6.80;99.90
9497;DHT22;4786;51.270;4.456;2024-03-02T05:57:39;6.80;99.90
9497;DHT22;4786;51.270;4.456;2024-03-02T06:00:27;6.70;99.90
9497;DHT22;4786;51.270;4.456;2024-03-02T06:02:53;6.70;99.90
9497;DHT22;4786;51.270;4.456;2024-03-02T06:05:19;6.70;99.90
9497;DHT22;4786;51.270;4.456;2024-03-02T06:07:46;6.60;99.90
9497;DHT22;4786;51.270;4.456;2024-03-02T06:10:12;6.60;99.90
9497;DHT22;4786;51.270;4.456;2024-03-02T06:12:37;6.50;99.90
9497;DHT22;4786;51.270;4.456;2024-03-02T06:15:03;6.50;99.90
9497;DHT22;4786;51.270;4.456;2024-03-02T06:17:29;6.50;99.90
9497;DHT22;4786;51.270;4.456;2024-03-02T06:19:55;6.50;99.90
9497;DHT22;4786;51.270;4.456;2024-03-02T06:22:21;6.50;99.90
9497;DHT22;4786;51.270;4.456;2024-03-02T06:24:50;6.60;99.90
9497;DHT22;4786;51.270;4.456;2024-03-02T06:27:16;6.50;99.90
9497;DHT22;4786;51.270;4.456;2024-03-02T06:29:42;6.40;99.90
9497;DHT22;4786;51.270;4.456;2024-03-02T06:32:08;6.50;99.90
9497;DHT22;4786;51.270;4.456;2024-03-02T06:34:34;6.40;99.90
9497;DHT22;4786;51.270;4.456;2024-03-02T06:36:59;6.40;99.90
9497;DHT22;4786;51.270;4.456;2024-03-02T06:39:25;6.50;99.90
9497;DHT22;4786;51.270;4.456;2024-03-02T06:41:51;6.40;99.90
9497;DHT22;4786;51.270;4.456;2024-03-02T06:44:17;6.40;99.90
9497;DHT22;4786;51.270;4.456;2024-03-02T06:46:43;6.40;99.90
9497;DHT22;4786;51.270;4.456;2024-03-02T06:49:08;6.50;99.90
9497;DHT22;4786;51.270;4.456;2024-03-02T06:51:36;6.50;99.90
9497;DHT22;4786;51.270;4.456;2024-03-02T06:54:01;6.50;99.90
9497;DHT22;4786;51.270;4.456;2024-03-02T06:56:27;6.50;99.90
9497;DHT22;4786;51.270;4.456;2024-03-02T06:58:53;6.50;99.90
9497;DHT22;4786;51.270;4.456;2024-03-02T07:01:19;6.50;99.90
9497;DHT22;4786;51.270;4.456;2024-03-02T07:03:46;6.50;99.90
9497;DHT22;4786;51.270;4.456;2024-03-02T07:06:12;6.50;99.90
9497;DHT22;4786;51.270;4.456;2024-03-02T07:08:38;6.50;99.90
9497;DHT22;4786;51.270;4.456;2024-03-02T07:11:03;6.60;99.90
9497;DHT22;4786;51.270;4.456;2024-03-02T07:13:29;6.50;99.90
9497;DHT22;4786;51.270;4.456;2024-03-02T07:15:56;6.50;99.90
9497;DHT22;4786;51.270;4.456;2024-03-02T07:18:40;6.50;99.90
9497;DHT22;4786;51.270;4.456;2024-03-02T07:21:16;6.60;99.90
9497;DHT22;4786;51.270;4.456;2024-03-02T07:23:43;6.60;99.90
9497;DHT22;4786;51.270;4.456;2024-03-02T07:26:09;6.60;99.90
9497;DHT22;4786;51.270;4.456;2024-03-02T07:28:34;6.50;99.90
9497;DHT22;4786;51.270;4.456;2024-03-02T07:31:01;6.70;99.90
9497;DHT22;4786;51.270;4.456;2024-03-02T07:33:27;6.60;99.90
9497;DHT22;4786;51.270;4.456;2024-03-02T07:35:54;6.60;99.90
9497;DHT22;4786;51.270;4.456;2024-03-02T07:38:21;6.70;99.90
9497;DHT22;4786;51.270;4.456;2024-03-02T07:40:48;6.60;99.90
9497;DHT22;4786;51.270;4.456;2024-03-02T07:43:17;6.70;99.90
9497;DHT22;4786;51.270;4.456;2024-03-02T07:45:44;6.70;99.90
9497;DHT22;4786;51.270;4.456;2024-03-02T07:48:10;6.70;99.90
9497;DHT22;4786;51.270;4.456;2024-03-02T07:50:36;6.80;99.90
9497;DHT22;4786;51.270;4.456;2024-03-02T07:53:04;6.90;99.90
9497;DHT22;4786;51.270;4.456;2024-03-02T07:55:34;6.90;99.90
9497;DHT22;4786;51.270;4.456;2024-03-02T07:58:00;6.90;99.90
9497;DHT22;4786;51.270;4.456;2024-03-02T08:00:27;7.10;99.90
9497;DHT22;4786;51.270;4.456;2024-03-02T08:02:53;7.10;99.90
9497;DHT22;4786;51.270;4.456;2024-03-02T08:05:19;7.10;99.90
9497;DHT22;4786;51.270;4.456;2024-03-02T08:07:46;7.20;99.90
9497;DHT22;4786;51.270;4.456;2024-03-02T08:10:13;7.70;99.90
9497;DHT22;4786;51.270;4.456;2024-03-02T08:12:38;8.30;99.90
9497;DHT22;4786;51.270;4.456;2024-03-02T08:15:05;8.80;99.90
9497;DHT22;4786;51.270;4.456;2024-03-02T08:17:32;9.40;99.90
9497;DHT22;4786;51.270;4.456;2024-03-02T08:19:59;9.80;99.90
9497;DHT22;4786;51.270;4.456;2024-03-02T08:22:24;10.20;99.90
9497;DHT22;4786;51.270;4.456;2024-03-02T08:24:51;10.70;99.90
9497;DHT22;4786;51.270;4.456;2024-03-02T08:27:17;11.10;99.90
9497;DHT22;4786;51.270;4.456;2024-03-02T08:29:43;11.20;99.90
9497;DHT22;4786;51.270;4.456;2024-03-02T08:32:09;11.30;99.90
9497;DHT22;4786;51.270;4.456;2024-03-02T08:34:35;11.30;99.90
9497;DHT22;4786;51.270;4.456;2024-03-02T08:37:01;11.50;99.90
9497;DHT22;4786;51.270;4.456;2024-03-02T08:39:27;11.50;99.90
9497;DHT22;4786;51.270;4.456;2024-03-02T08:41:53;12.00;99.90
9497;DHT22;4786;51.270;4.456;2024-03-02T08:44:19;12.40;99.90
9497;DHT22;4786;51.270;4.456;2024-03-02T08:46:45;12.80;99.90
9497;DHT22;4786;51.270;4.456;2024-03-02T08:49:12;12.90;99.90
9497;DHT22;4786;51.270;4.456;2024-03-02T08:51:38;12.90;99.90
9497;DHT22;4786;51.270;4.456;2024-03-02T08:54:04;13.10;99.90
9497;DHT22;4786;51.270;4.456;2024-03-02T08:56:31;13.20;99.90
9497;DHT22;4786;51.270;4.456;2024-03-02T08:58:57;13.10;99.90
9497;DHT22;4786;51.270;4.456;2024-03-02T09:01:23;13.00;99.90
9497;DHT22;4786;51.270;4.456;2024-03-02T09:03:49;13.10;99.90
9497;DHT22;4786;51.270;4.456;2024-03-02T09:06:15;13.10;99.90
9497;DHT22;4786;51.270;4.456;2024-03-02T09:08:45;12.90;99.90
9497;DHT22;4786;51.270;4.456;2024-03-02T09:11:17;12.60;99.90
9497;DHT22;4786;51.270;4.456;2024-03-02T09:13:43;12.30;99.90
9497;DHT22;4786;51.270;4.456;2024-03-02T09:16:09;12.00;99.90
9497;DHT22;4786;51.270;4.456;2024-03-02T09:18:36;12.00;99.90
9497;DHT22;4786;51.270;4.456;2024-03-02T09:21:02;11.80;99.90
9497;DHT22;4786;51.270;4.456;2024-03-02T09:23:28;11.50;99.90
9497;DHT22;4786;51.270;4.456;2024-03-02T09:25:54;11.50;99.90
9497;DHT22;4786;51.270;4.456;2024-03-02T09:28:20;11.60;99.90
9497;DHT22;4786;51.270;4.456;2024-03-02T09:30:46;11.60;99.90
9497;DHT22;4786;51.270;4.456;2024-03-02T09:33:12;11.60;99.90
9497;DHT22;4786;51.270;4.456;2024-03-02T09:35:38;11.70;99.90
9497;DHT22;4786;51.270;4.456;2024-03-02T09:38:04;11.80;99.90
9497;DHT22;4786;51.270;4.456;2024-03-02T09:40:32;11.90;99.90
9497;DHT22;4786;51.270;4.456;2024-03-02T09:42:58;11.90;99.90
9497;DHT22;4786;51.270;4.456;2024-03-02T09:45:25;11.80;99.90
9497;DHT22;4786;51.270;4.456;2024-03-02T09:47:51;11.90;99.90
9497;DHT22;4786;51.270;4.456;2024-03-02T09:50:17;11.90;99.90
9497;DHT22;4786;51.270;4.456;2024-03-02T09:52:43;12.00;99.90
9497;DHT22;4786;51.270;4.456;2024-03-02T09:55:09;12.10;99.90
9497;DHT22;4786;51.270;4.456;2024-03-02T09:57:35;12.10;99.90
9497;DHT22;4786;51.270;4.456;2024-03-02T10:00:01;12.10;99.90
9497;DHT22;4786;51.270;4.456;2024-03-02T10:02:27;12.20;99.90
9497;DHT22;4786;51.270;4.456;2024-03-02T10:04:53;12.10;99.90
9497;DHT22;4786;51.270;4.456;2024-03-02T10:07:19;12.10;99.90
9497;DHT22;4786;51.270;4.456;2024-03-02T10:09:47;12.10;99.90
9497;DHT22;4786;51.270;4.456;2024-03-02T10:12:15;11.90;99.90
9497;DHT22;4786;51.270;4.456;2024-03-02T10:14:43;11.60;99.90
9497;DHT22;4786;51.270;4.456;2024-03-02T10:17:13;11.50;99.90
9497;DHT22;4786;51.270;4.456;2024-03-02T10:19:40;11.50;99.90
9497;DHT22;4786;51.270;4.456;2024-03-02T10:22:07;11.50;99.90
9497;DHT22;4786;51.270;4.456;2024-03-02T10:24:43;11.40;99.90
9497;DHT22;4786;51.270;4.456;2024-03-02T10:27:25;11.60;99.90
9497;DHT22;4786;51.270;4.456;2024-03-02T10:29:52;11.60;99.90
9497;DHT22;4786;51.270;4.456;2024-03-02T10:32:18;11.50;99.90
9497;DHT22;4786;51.270;4.456;2024-03-02T10:34:47;11.50;99.90
9497;DHT22;4786;51.270;4.456;2024-03-02T10:37:14;11.40;99.90
9497;DHT22;4786;51.270;4.456;2024-03-02T10:39:41;11.50;99.90
9497;DHT22;4786;51.270;4.456;2024-03-02T10:42:07;11.50;99.90
9497;DHT22;4786;51.270;4.456;2024-03-02T10:44:33;11.60;99.90
9497;DHT22;4786;51.270;4.456;2024-03-02T10:47:01;11.60;99.90
9497;DHT22;4786;51.270;4.456;2024-03-02T10:49:32;11.70;99.90
9497;DHT22;4786;51.270;4.456;2024-03-02T10:51:58;11.90;99.90
9497;DHT22;4786;51.270;4.456;2024-03-02T10:54:25;12.00;99.90
9497;DHT22;4786;51.270;4.456;2024-03-02T10:57:01;12.20;99.90
9497;DHT22;4786;51.270;4.456;2024-03-02T10:59:35;12.50;99.90
9497;DHT22;4786;51.270;4.456;2024-03-02T11:02:05;12.80;99.90
9497;DHT22;4786;51.270;4.456;2024-03-02T11:04:34;12.70;99.90
9497;DHT22;4786;51.270;4.456;2024-03-02T11:07:06;12.70;99.90
9497;DHT22;4786;51.270;4.456;2024-03-02T11:09:41;12.90;99.90
9497;DHT22;4786;51.270;4.456;2024-03-02T11:12:19;13.10;99.90
9497;DHT22;4786;51.270;4.456;2024-03-02T11:14:45;13.00;99.90
9497;DHT22;4786;51.270;4.456;2024-03-02T11:17:14;13.00;99.90
9497;DHT22;4786;51.270;4.456;2024-03-02T11:19:41;13.00;99.90
9497;DHT22;4786;51.270;4.456;2024-03-02T11:22:08;13.00;99.90
9497;DHT22;4786;51.270;4.456;2024-03-02T11:24:34;13.00;99.90
9497;DHT22;4786;51.270;4.456;2024-03-02T11:27:05;13.00;99.90
9497;DHT22;4786;51.270;4.456;2024-03-02T11:32:03;13.00;99.90
9497;DHT22;4786;51.270;4.456;2024-03-02T11:34:31;13.00;99.90
9497;DHT22;4786;51.270;4.456;2024-03-02T11:36:57;13.00;99.90
9497;DHT22;4786;51.270;4.456;2024-03-02T11:39:25;13.00;99.90
9497;DHT22;4786;51.270;4.456;2024-03-02T11:41:51;12.90;99.90
9497;DHT22;4786;51.270;4.456;2024-03-02T11:44:17;12.90;99.90
9497;DHT22;4786;51.270;4.456;2024-03-02T11:47:06;12.80;99.90
9497;DHT22;4786;51.270;4.456;2024-03-02T11:52:09;12.80;99.90
9497;DHT22;4786;51.270;4.456;2024-03-02T11:54:41;12.70;99.90
9497;DHT22;4786;51.270;4.456;2024-03-02T11:57:16;12.80;99.90
9497;DHT22;4786;51.270;4.456;2024-03-02T11:59:43;12.90;99.90
9497;DHT22;4786;51.270;4.456;2024-03-02T12:02:20;12.90;99.90
9497;DHT22;4786;51.270;4.456;2024-03-02T12:04:47;13.00;99.90
9497;DHT22;4786;51.270;4.456;2024-03-02T12:07:21;13.10;99.90
9497;DHT22;4786;51.270;4.456;2024-03-02T12:09:48;13.20;99.90
9497;DHT22;4786;51.270;4.456;2024-03-02T12:12:14;13.40;99.90
9497;DHT22;4786;51.270;4.456;2024-03-02T12:14:53;13.40;99.90
9497;DHT22;4786;51.270;4.456;2024-03-02T12:17:21;13.50;99.90
9497;DHT22;4786;51.270;4.456;2024-03-02T12:19:48;13.60;99.90
9497;DHT22;4786;51.270;4.456;2024-03-02T12:22:14;13.60;99.90
9497;DHT22;4786;51.270;4.456;2024-03-02T12:24:41;13.70;99.90
9497;DHT22;4786;51.270;4.456;2024-03-02T12:27:07;13.60;99.90
9497;DHT22;4786;51.270;4.456;2024-03-02T12:29:34;13.60;99.90
9497;DHT22;4786;51.270;4.456;2024-03-02T12:32:00;13.50;99.90
9497;DHT22;4786;51.270;4.456;2024-03-02T12:34:27;13.60;99.90
9497;DHT22;4786;51.270;4.456;2024-03-02T12:36:53;13.70;99.90
9497;DHT22;4786;51.270;4.456;2024-03-02T12:39:20;13.70;99.90
9497;DHT22;4786;51.270;4.456;2024-03-02T12:41:46;13.80;99.90
9497;DHT22;4786;51.270;4.456;2024-03-02T12:44:12;13.80;99.90
9497;DHT22;4786;51.270;4.456;2024-03-02T12:46:39;13.80;99.90
9497;DHT22;4786;51.270;4.456;2024-03-02T12:49:08;13.70;99.90
9497;DHT22;4786;51.270;4.456;2024-03-02T12:51:36;13.60;99.90
9497;DHT22;4786;51.270;4.456;2024-03-02T12:54:02;13.40;99.90
9497;DHT22;4786;51.270;4.456;2024-03-02T12:56:29;13.30;99.90
9497;DHT22;4786;51.270;4.456;2024-03-02T12:58:55;13.30;99.90
9497;DHT22;4786;51.270;4.456;2024-03-02T13:01:21;13.30;99.90
9497;DHT22;4786;51.270;4.456;2024-03-02T13:03:49;13.30;99.90
9497;DHT22;4786;51.270;4.456;2024-03-02T13:06:18;13.30;99.90
9497;DHT22;4786;51.270;4.456;2024-03-02T13:08:51;13.40;99.90
9497;DHT22;4786;51.270;4.456;2024-03-02T13:11:17;13.30;99.90
9497;DHT22;4786;51.270;4.456;2024-03-02T13:13:44;13.30;99.90
9497;DHT22;4786;51.270;4.456;2024-03-02T13:16:10;13.20;99.90
9497;DHT22;4786;51.270;4.456;2024-03-02T13:18:38;13.30;99.90
9497;DHT22;4786;51.270;4.456;2024-03-02T13:21:05;13.30;99.90
9497;DHT22;4786;51.270;4.456;2024-03-02T13:23:30;13.30;99.90
9497;DHT22;4786;51.270;4.456;2024-03-02T13:25:57;13.40;99.90
9497;DHT22;4786;51.270;4.456;2024-03-02T13:28:25;13.60;99.90
9497;DHT22;4786;51.270;4.456;2024-03-02T13:30:58;13.70;99.90
9497;DHT22;4786;51.270;4.456;2024-03-02T13:33:23;13.70;99.90
9497;DHT22;4786;51.270;4.456;2024-03-02T13:35:49;13.60;99.90
9497;DHT22;4786;51.270;4.456;2024-03-02T13:38:19;13.50;99.90
9497;DHT22;4786;51.270;4.456;2024-03-02T13:40:46;13.50;99.90
9497;DHT22;4786;51.270;4.456;2024-03-02T13:43:14;13.40;99.90
9497;DHT22;4786;51.270;4.456;2024-03-02T13:45:40;13.30;99.90
9497;DHT22;4786;51.270;4.456;2024-03-02T13:48:07;13.30;99.90
9497;DHT22;4786;51.270;4.456;2024-03-02T13:50:33;13.20;99.90
9497;DHT22;4786;51.270;4.456;2024-03-02T13:52:59;13.10;99.90
9497;DHT22;4786;51.270;4.456;2024-03-02T13:55:25;13.10;99.90
9497;DHT22;4786;51.270;4.456;2024-03-02T13:57:51;13.20;99.90
9497;DHT22;4786;51.270;4.456;2024-03-02T14:00:17;13.20;99.90
9497;DHT22;4786;51.270;4.456;2024-03-02T14:02:45;13.20;99.90
9497;DHT22;4786;51.270;4.456;2024-03-02T14:05:11;13.10;99.90
9497;DHT22;4786;51.270;4.456;2024-03-02T14:07:38;13.10;99.90
9497;DHT22;4786;51.270;4.456;2024-03-02T14:10:04;13.20;99.90
9497;DHT22;4786;51.270;4.456;2024-03-02T14:12:30;13.20;99.90
9497;DHT22;4786;51.270;4.456;2024-03-02T14:14:56;13.10;99.90
9497;DHT22;4786;51.270;4.456;2024-03-02T14:17:24;13.20;99.90
9497;DHT22;4786;51.270;4.456;2024-03-02T14:19:50;13.20;99.90
9497;DHT22;4786;51.270;4.456;2024-03-02T14:22:19;13.20;99.90
9497;DHT22;4786;51.270;4.456;2024-03-02T14:24:45;13.30;99.90
9497;DHT22;4786;51.270;4.456;2024-03-02T14:27:11;13.30;99.90
9497;DHT22;4786;51.270;4.456;2024-03-02T14:29:38;13.30;99.90
9497;DHT22;4786;51.270;4.456;2024-03-02T14:32:05;13.30;99.90
9497;DHT22;4786;51.270;4.456;2024-03-02T14:34:31;13.30;99.90
9497;DHT22;4786;51.270;4.456;2024-03-02T14:36:57;13.30;99.90
9497;DHT22;4786;51.270;4.456;2024-03-02T14:39:23;13.40;99.90
9497;DHT22;4786;51.270;4.456;2024-03-02T14:41:49;13.30;99.90
9497;DHT22;4786;51.270;4.456;2024-03-02T14:44:15;13.30;99.90
9497;DHT22;4786;51.270;4.456;2024-03-02T14:46:41;13.30;99.90
9497;DHT22;4786;51.270;4.456;2024-03-02T14:49:07;13.40;99.90
9497;DHT22;4786;51.270;4.456;2024-03-02T14:51:33;13.40;99.90
9497;DHT22;4786;51.270;4.456;2024-03-02T14:53:59;13.50;99.90
9497;DHT22;4786;51.270;4.456;2024-03-02T14:56:24;13.60;99.90
9497;DHT22;4786;51.270;4.456;2024-03-02T14:58:50;13.60;99.90
9497;DHT22;4786;51.270;4.456;2024-03-02T15:01:17;13.70;99.90
9497;DHT22;4786;51.270;4.456;2024-03-02T15:03:43;13.70;99.90
9497;DHT22;4786;51.270;4.456;2024-03-02T15:06:09;13.80;99.90
9497;DHT22;4786;51.270;4.456;2024-03-02T15:08:35;13.80;99.90
9497;DHT22;4786;51.270;4.456;2024-03-02T15:11:01;13.80;99.90
9497;DHT22;4786;51.270;4.456;2024-03-02T15:13:29;13.70;99.90
9497;DHT22;4786;51.270;4.456;2024-03-02T15:15:55;13.70;99.90
9497;DHT22;4786;51.270;4.456;2024-03-02T15:18:20;13.70;99.90
9497;DHT22;4786;51.270;4.456;2024-03-02T15:20:46;13.60;99.90
9497;DHT22;4786;51.270;4.456;2024-03-02T15:23:12;13.60;99.90
9497;DHT22;4786;51.270;4.456;2024-03-02T15:25:38;13.60;99.90
9497;DHT22;4786;51.270;4.456;2024-03-02T15:28:05;13.40;99.90
9497;DHT22;4786;51.270;4.456;2024-03-02T15:30:31;13.40;99.90
9497;DHT22;4786;51.270;4.456;2024-03-02T15:32:57;13.30;99.90
9497;DHT22;4786;51.270;4.456;2024-03-02T15:35:22;13.20;99.90
9497;DHT22;4786;51.270;4.456;2024-03-02T15:37:48;13.20;99.90
9497;DHT22;4786;51.270;4.456;2024-03-02T15:40:14;13.20;99.90
9497;DHT22;4786;51.270;4.456;2024-03-02T15:42:39;13.20;99.90
9497;DHT22;4786;51.270;4.456;2024-03-02T15:45:06;13.10;99.90
9497;DHT22;4786;51.270;4.456;2024-03-02T15:47:32;13.10;99.90
9497;DHT22;4786;51.270;4.456;2024-03-02T15:49:59;13.10;99.90
9497;DHT22;4786;51.270;4.456;2024-03-02T15:52:24;13.10;99.90
9497;DHT22;4786;51.270;4.456;2024-03-02T15:54:50;13.10;99.90
9497;DHT22;4786;51.270;4.456;2024-03-02T15:57:16;13.00;99.90
9497;DHT22;4786;51.270;4.456;2024-03-02T15:59:43;13.10;99.90
9497;DHT22;4786;51.270;4.456;2024-03-02T16:02:09;12.90;99.90
9497;DHT22;4786;51.270;4.456;2024-03-02T16:04:35;12.70;99.90
9497;DHT22;4786;51.270;4.456;2024-03-02T16:07:01;12.60;99.90
9497;DHT22;4786;51.270;4.456;2024-03-02T16:09:27;12.50;99.90
9497;DHT22;4786;51.270;4.456;2024-03-02T16:11:53;12.40;99.90
9497;DHT22;4786;51.270;4.456;2024-03-02T16:14:20;12.40;99.90
9497;DHT22;4786;51.270;4.456;2024-03-02T16:16:45;12.30;99.90